Airfield :
LOGIN :

Register | Disclaimer

   EN    FR    IT 

 










Legend :    VFR   Marginal VFR   IFR   Intensive IFR   Very Intensive IFR
Visi :
Ceiling :
>= 8 km
>= 3000ft
5 to 8 km
1000 to 3000 ft
1500m to 5 km
500 to 1000 ft
800 to 1500m
200 to 500 ft
< 800m
< 200 ft
Symbols :   Thunderstorms  Fog  Heavy snow  Heavy precipitations  Wind > 20 kt
SIGMETs :     Misc.  Thunderstorms  Icing  Turbulence  Mountain Waves  Volcanic Ashes







- Airport Elevation : 2776 ft
- IATA code : VLL


LEVD - Valladolid

CURRENT METAR :
  • 242030Z 19006KT 160V220 CAVOK 17/09 Q1019

EXPIRED METARs :
  • 242000Z 17010KT 9999 FEW046TCU 18/08 Q1018
  • 241930Z 15006KT 090V170 9999 FEW046TCU 18/11 Q1018
  • 241900Z 03002KT 9999 SCT046CB 20/13 Q1017
  • 241830Z 03002KT 9999 FEW047TCU 21/12 Q1017
  • 241800Z 36003KT 9999 FEW045 22/13 Q1017

TAF TAF LEVD
Valid from the 24 at 18:00 until the 25 at 18:00 UTC


241700Z 2418/2518 04007KT CAVOK TX25/2515Z TN07/2506Z
PROB30
TEMPO 2512/2518 SCT035TCU
TEMPO 2516/2518 04015G27KT
No reported NOTAMs for that airfield.
2 SIGMETs reported for the Madrid FIR (LECM) :
 
Embedded thunderstorms
LECM SIGMET 8 VALID 242006/242200 LEVA
LECM MADRID FIR/UIR EMBD TS OBS AT 2006Z WI N38 W00640 - N3650 W00640 - N3640 W00530 - N38 W00520 - N38 W00640 TOP FL340 MOV E NC=
Embedded thunderstorms
LECM SIGMET 7 VALID 241900/242100 LEVA
LECM MADRID FIR/UIR EMBD TS OBS AT 1854Z WI N3620 W00620 - N3750 W00510 - N3750 W004 - N3630 W005 - N3620 W00620 TOP FL340 MOV E WKN=



MET'MAP, your aeronautical weather chart ! - Copyright ORBIFLY December 2007 - Disclaimer

ORBIFLY MET'MAP TEAM :

Programming & Development : Alexandra Zaïnal
Concept & Development : Baudouin d'Aumeries
Co-Development & Prog : Marc-Olivier Méhu
Technical & hardware support : Manuel Goepfert

Contact : metmap@orbifly.com




SOURCES & CREDITS :

   NOAA